Airfield :







YOU CAN JOIN US ON...

 
LOGIN :

Register | Disclaimer

   EN    FR    IT 

 









Legend :    VFR   Marginal VFR   IFR   Intensive IFR   Very Intensive IFR
Visi :
Ceiling :
>= 8 km
>= 3000ft
5 to 8 km
1000 to 3000 ft
1500m to 5 km
500 to 1000 ft
800 to 1500m
200 to 500 ft
< 800m
< 200 ft
Symbols :   Thunderstorms  Fog  Heavy snow  Heavy precipitations  Wind > 20 kt






- Airport Elevation : 29 ft
- IATA code : CUR


TNCC - Willemstad/Hato Int.

CURRENT METAR :
  • 130800Z AUTO 12005KT 9999 ////// 27/25 Q1014 NOSIG

EXPIRED METARs :
  • 130700Z 09011KT 9999 FEW017 28/25 Q1014 NOSIG
  • 130600Z 11010KT 9999 FEW017 28/25 Q1014 NOSIG
  • 130500Z 11009KT 9999 SCT017 28/26 Q1015 NOSIG
  • 130400Z AUTO 10012KT //// ////// 28/26 Q1016 NOSIG

TAF TAF TNCC
Valid from the 13 at 06:00 until the 14 at 06:00 UTC


130515Z 1306/1406 10012KT 9999 SCT016
PROB40
TEMPO 1306/1316 10013G25KT 4000 SHRA TSRA SCT012CB BKN015
TNCF FIR / North America



MET'MAP, your aeronautical weather chart ! - Copyright ORBIFLY December 2007 - Disclaimer

ORBIFLY MET'MAP TEAM :

Programming & Development : Alexandra Zaïnal
Original concept : Baudouin d'Aumeries
Technical & hardware support : Manuel Goepfert
Assistance : Marc-Olivier Méhu




SOURCES & CREDITS :

   NOAA